createdAt,value
2018-06-21T05:05:13.643Z,18.70
2018-06-21T05:07:46.270Z,18.60
2018-06-21T05:10:15.139Z,18.60
2018-06-21T05:12:45.279Z,18.60
2018-06-21T05:15:14.136Z,18.50
2018-06-21T05:23:42.133Z,18.60
2018-06-21T05:26:11.021Z,18.70
2018-06-21T05:28:39.884Z,18.50
2018-06-21T05:31:08.749Z,18.50
2018-06-21T05:33:37.645Z,18.50
2018-06-21T05:36:06.501Z,18.50
2018-06-21T05:44:10.681Z,18.40
2018-06-21T06:43:26.536Z,18.40
2018-06-21T06:45:55.486Z,18.40
2018-06-21T06:48:24.927Z,18.40
2018-06-21T06:50:54.556Z,18.40
2018-06-21T06:53:23.544Z,18.30
2018-06-21T08:35:58.273Z,18.70
2018-06-21T16:03:33.017Z,18.80
2018-06-21T16:06:01.873Z,18.90
2018-06-21T16:08:30.756Z,19.00
2018-06-21T16:10:59.641Z,19.00
2018-06-21T16:13:28.501Z,19.10
2018-06-21T16:15:57.352Z,19.20
2018-06-21T16:18:26.284Z,19.10
2018-06-21T16:20:56.209Z,18.90
2018-06-21T16:26:42.217Z,18.50
2018-06-21T16:35:04.093Z,17.80
2018-06-21T16:37:32.957Z,17.80
2018-06-21T16:40:05.004Z,17.80
2018-06-21T16:42:33.897Z,18.00
2018-06-21T16:45:02.800Z,18.00
2018-06-21T16:47:33.374Z,18.00
2018-06-21T16:52:57.756Z,18.10
2018-06-21T16:55:37.257Z,18.20
2018-06-21T16:58:06.109Z,18.10
2018-06-21T17:00:35.290Z,19.00
2018-06-21T17:03:04.195Z,19.40
2018-06-21T17:05:36.438Z,19.70
2018-06-21T17:17:00.740Z,19.30
2018-06-21T17:19:29.584Z,18.90
2018-06-21T17:21:58.549Z,18.80
2018-06-21T17:24:28.534Z,18.40
2018-06-21T17:26:57.438Z,18.20
2018-06-21T17:35:33.538Z,17.60
2018-06-21T17:43:42.142Z,17.40
2018-06-21T17:46:11.331Z,17.10
2018-06-21T17:48:40.237Z,17.10
2018-06-21T17:51:14.035Z,17.20
2018-06-21T17:56:59.352Z,17.20
2018-06-21T18:30:02.316Z,15.90
2018-06-21T18:32:32.831Z,15.80
2018-06-21T19:14:51.775Z,15.00
2018-06-21T19:26:42.651Z,14.90
2018-06-21T19:35:18.227Z,14.80
2018-06-21T20:11:30.903Z,14.20
2018-06-21T20:13:59.815Z,14.10
2018-06-21T20:16:38.199Z,14.10
2018-06-21T20:21:58.028Z,14.10
2018-06-21T20:24:26.974Z,14.10
2018-06-21T20:26:55.871Z,14.00
2018-06-21T20:29:24.757Z,14.00
2018-06-21T20:31:53.649Z,14.10
2018-06-21T20:34:34.674Z,14.00
2018-06-21T20:37:03.591Z,14.00
2018-06-21T20:39:32.513Z,14.00
2018-06-21T20:42:01.481Z,14.00
2018-06-21T20:44:30.357Z,14.00
2018-06-21T20:56:09.318Z,13.80
2018-06-21T20:58:38.887Z,13.70
2018-06-21T21:01:07.819Z,13.70
2018-06-21T21:03:37.063Z,13.60
2018-06-21T21:06:05.867Z,13.60
2018-06-21T21:08:34.807Z,13.50
2018-06-21T21:11:03.744Z,13.50
2018-06-21T21:16:35.586Z,13.40
2018-06-21T21:24:58.471Z,13.40
2018-06-21T21:27:37.800Z,13.30
2018-06-21T21:30:14.494Z,13.30
2018-06-21T21:32:43.381Z,13.30
2018-06-21T21:38:15.951Z,13.20
2018-06-21T21:40:44.924Z,13.20
2018-06-21T21:55:27.704Z,13.00
2018-06-21T22:03:43.420Z,12.90
2018-06-21T22:06:12.393Z,12.80
2018-06-21T22:08:41.258Z,12.80
2018-06-21T22:11:10.632Z,12.70
2018-06-21T22:13:39.523Z,12.60
2018-06-21T22:22:11.441Z,12.50
2018-06-21T22:24:40.830Z,12.60
2018-06-21T22:27:09.793Z,12.50
2018-06-21T22:29:38.702Z,12.50
2018-06-21T22:32:07.592Z,12.40
2018-06-21T22:34:36.531Z,12.40
2018-06-21T22:48:33.030Z,12.40
2018-06-21T22:51:02.001Z,12.30
2018-06-21T22:53:30.889Z,12.20
2018-06-21T22:55:59.806Z,12.40
2018-06-21T22:58:28.715Z,12.20
2018-06-21T23:10:32.370Z,12.10
2018-06-21T23:13:14.656Z,12.20
2018-06-21T23:21:24.961Z,12.10
2018-06-21T23:23:53.867Z,12.00
2018-06-21T23:26:22.760Z,12.10
2018-06-21T23:28:51.695Z,12.10
2018-06-21T23:31:20.679Z,12.30
2018-06-21T23:34:09.844Z,12.40
2018-06-21T23:39:23.041Z,12.40
2018-06-21T23:41:51.920Z,12.30
2018-06-21T23:44:20.778Z,12.40
2018-06-21T23:46:49.747Z,12.30
2018-06-21T23:49:18.604Z,12.20
2018-06-21T23:52:05.583Z,12.20
2018-06-21T23:57:10.470Z,12.20
2018-06-21T23:59:39.397Z,12.20
